Issaquah, WA

2:22 PM PST on February 14, 2016 (GMT -0800)
APRSWXNET | | Change Station
CLOSE
Current Station
Personal Weather Station
Location: Issaquah, WA
Elevation: 1377 ft
Nearby Weather Stations

Elev 1377 ft 47.50 °N, 122.07 °W | Updated 1 hour ago

Overcast
Overcast
47 °F
Feels Like 45 °F
N
4
Wind Variable Wind from SE
Gusts 5.0 mph

Today
High -- | Low -- °F
--% Chance of Precip.
Yesterday
High -- | Low -- °F
Precip. -- in
Pressure 30.14 in
Visibility 10.0 miles
Clouds Overcast 1400 ft
Windchill 45 °F
Dew Point 47 °F
Humidity 100%
Rainfall in
Snow Depth Not available.
7:15 AM 5:29 PM
Waxing Crescent, 46% visible
METAR KRNT 142153Z 13010G16KT 10SM OVC014 13/10 A3012 RMK AO2 SLP204 T01330100
Pressure 30.14 in
Visibility 10.0 miles
Clouds Overcast 1400 ft
Windchill 45 °F
Dew Point 47 °F
Humidity 100%
Rainfall in
Snow Depth Not available.
7:15 AM 5:29 PM
Waxing Crescent, 46% visible
METAR KRNT 142153Z 13010G16KT 10SM OVC014 13/10 A3012 RMK AO2 SLP204 T01330100

10-Day Weather Forecast

Almanac

Astronomy

Feb. 14, 2016 Rise Set
Actual Time
Civil Twilight
Nautical Twilight
Astronomical Twilight
Moon
Length of Visible Light
Length of Day
Tomorrow will be .
, % of the Moon is Illuminated

Today's Extremes

State Highs State Lows

Community

WunderPhotos

Upload Photos

1,892,893 photos uploaded!

WunderBlog® & News

Nearby

Air Quality

  Air Quality AQ Index Pollutant
Not available.

Snow Depth

Station Depth Elevation

Earthquake Activity

City Distance Mag. Time & Date
Minimum magnitude displayed is 2.5.

Coastal Water Temperatures

Place Temperature

Stations

Nearby Weather Stations

Station Location Temp. Windchill Dew Point Humidity Wind Precip. Elev Updated Type
                   

Watches & Warnings

There are currently no watches in effect.